sensor_id;sensor_type;location;lat;lon;timestamp;pressure;altitude;pressure_sealevel;temperature;humidity
29379;BME280;16362;47.202;15.258;2024-03-08T00:57:45;96341.81;;;0.93;100.00
29379;BME280;16362;47.202;15.258;2024-03-08T01:09:06;96343.47;;;0.94;100.00
29379;BME280;16362;47.202;15.258;2024-03-08T01:52:37;96311.72;;;0.73;100.00
29379;BME280;16362;47.202;15.258;2024-03-08T02:09:58;96309.44;;;0.44;100.00
29379;BME280;16362;47.202;15.258;2024-03-08T02:21:06;96306.28;;;0.52;100.00
29379;BME280;16362;47.202;15.258;2024-03-08T02:46:45;96308.56;;;0.56;100.00
29379;BME280;16362;47.202;15.258;2024-03-08T03:07:14;96293.13;;;0.52;100.00
29379;BME280;16362;47.202;15.258;2024-03-08T03:23:22;96293.63;;;0.57;100.00
29379;BME280;16362;47.202;15.258;2024-03-08T03:29:31;96297.41;;;0.53;100.00
29379;BME280;16362;47.202;15.258;2024-03-08T03:46:52;96302.66;;;0.53;100.00
29379;BME280;16362;47.202;15.258;2024-03-08T04:08:26;96298.22;;;0.66;100.00
29379;BME280;16362;47.202;15.258;2024-03-08T04:39:37;96297.63;;;0.25;100.00
29379;BME280;16362;47.202;15.258;2024-03-08T04:45:56;96302.88;;;0.25;100.00
29379;BME280;16362;47.202;15.258;2024-03-08T04:52:32;96314.72;;;0.31;100.00
29379;BME280;16362;47.202;15.258;2024-03-08T06:13:35;96329.88;;;0.14;100.00
29379;BME280;16362;47.202;15.258;2024-03-08T06:47:05;96344.97;;;0.37;100.00
29379;BME280;16362;47.202;15.258;2024-03-08T06:53:14;96342.63;;;0.45;100.00
29379;BME280;16362;47.202;15.258;2024-03-08T06:59:36;96350.13;;;0.62;100.00
29379;BME280;16362;47.202;15.258;2024-03-08T07:05:55;96351.75;;;0.76;100.00
29379;BME280;16362;47.202;15.258;2024-03-08T07:23:03;96339.00;;;1.07;100.00
29379;BME280;16362;47.202;15.258;2024-03-08T07:30:17;96337.41;;;1.29;100.00
29379;BME280;16362;47.202;15.258;2024-03-08T07:46:22;96334.84;;;1.63;100.00
29379;BME280;16362;47.202;15.258;2024-03-08T07:52:30;96336.88;;;1.93;100.00
29379;BME280;16362;47.202;15.258;2024-03-08T07:58:48;96329.38;;;2.11;100.00
29379;BME280;16362;47.202;15.258;2024-03-08T08:05:08;96336.28;;;2.12;100.00
29379;BME280;16362;47.202;15.258;2024-03-08T08:22:32;96335.09;;;2.05;100.00
29379;BME280;16362;47.202;15.258;2024-03-08T08:28:51;96336.28;;;2.12;100.00
29379;BME280;16362;47.202;15.258;2024-03-08T08:35:11;96341.78;;;2.09;100.00
29379;BME280;16362;47.202;15.258;2024-03-08T08:41:30;96335.09;;;2.05;100.00
29379;BME280;16362;47.202;15.258;2024-03-08T08:52:41;96333.31;;;2.17;100.00
29379;BME280;16362;47.202;15.258;2024-03-08T08:59:03;96328.03;;;2.40;100.00
29379;BME280;16362;47.202;15.258;2024-03-08T09:20:57;96323.72;;;2.82;100.00
29379;BME280;16362;47.202;15.258;2024-03-08T09:27:06;96322.69;;;2.95;100.00
29379;BME280;16362;47.202;15.258;2024-03-08T09:46:22;96304.16;;;3.39;100.00
29379;BME280;16362;47.202;15.258;2024-03-08T09:52:31;96299.22;;;3.45;100.00
29379;BME280;16362;47.202;15.258;2024-03-08T09:58:50;96302.03;;;3.53;100.00
29379;BME280;16362;47.202;15.258;2024-03-08T10:16:29;96290.34;;;3.77;100.00
29379;BME280;16362;47.202;15.258;2024-03-08T10:23:02;96280.63;;;4.09;100.00
29379;BME280;16362;47.202;15.258;2024-03-08T10:29:28;96282.25;;;4.00;100.00
29379;BME280;16362;47.202;15.258;2024-03-08T10:40:04;96277.25;;;4.47;100.00
29379;BME280;16362;47.202;15.258;2024-03-08T11:01:56;96266.53;;;4.59;100.00
29379;BME280;16362;47.202;15.258;2024-03-08T11:23:38;96241.78;;;5.18;100.00
29379;BME280;16362;47.202;15.258;2024-03-08T11:34:40;96245.38;;;4.59;100.00
29379;BME280;16362;47.202;15.258;2024-03-08T11:44:50;96242.63;;;4.60;100.00
29379;BME280;16362;47.202;15.258;2024-03-08T11:55:00;96219.66;;;4.70;100.00
29379;BME280;16362;47.202;15.258;2024-03-08T12:01:10;96214.78;;;4.85;100.00
29379;BME280;16362;47.202;15.258;2024-03-08T12:07:56;96203.94;;;4.69;100.00
29379;BME280;16362;47.202;15.258;2024-03-08T12:14:16;96203.53;;;4.64;100.00
29379;BME280;16362;47.202;15.258;2024-03-08T12:20:34;96192.81;;;4.75;100.00
29379;BME280;16362;47.202;15.258;2024-03-08T12:26:43;96193.25;;;4.61;100.00
29379;BME280;16362;47.202;15.258;2024-03-08T12:33:01;96185.44;;;4.79;100.00
29379;BME280;16362;47.202;15.258;2024-03-08T12:39:21;96183.59;;;4.99;100.00
29379;BME280;16362;47.202;15.258;2024-03-08T12:46:07;96181.94;;;4.88;100.00
29379;BME280;16362;47.202;15.258;2024-03-08T12:52:16;96181.41;;;4.65;100.00
29379;BME280;16362;47.202;15.258;2024-03-08T12:58:37;96175.84;;;4.78;100.00
29379;BME280;16362;47.202;15.258;2024-03-08T13:04:56;96172.53;;;4.56;100.00
29379;BME280;16362;47.202;15.258;2024-03-08T13:11:18;96175.69;;;4.60;100.00
29379;BME280;16362;47.202;15.258;2024-03-08T13:17:27;96169.03;;;4.55;100.00
29379;BME280;16362;47.202;15.258;2024-03-08T13:23:47;96162.91;;;4.65;100.00
29379;BME280;16362;47.202;15.258;2024-03-08T13:30:07;96161.63;;;4.79;100.00
29379;BME280;16362;47.202;15.258;2024-03-08T13:36:20;96162.50;;;4.79;100.00
29379;BME280;16362;47.202;15.258;2024-03-08T13:46:33;96166.25;;;4.37;100.00
29379;BME280;16362;47.202;15.258;2024-03-08T13:52:55;96150.09;;;4.50;100.00
29379;BME280;16362;47.202;15.258;2024-03-08T13:59:13;96155.53;;;4.49;100.00
29379;BME280;16362;47.202;15.258;2024-03-08T14:05:32;96151.63;;;4.53;100.00
29379;BME280;16362;47.202;15.258;2024-03-08T14:11:43;96141.38;;;4.40;100.00
29379;BME280;16362;47.202;15.258;2024-03-08T14:18:05;96141.66;;;4.47;100.00
29379;BME280;16362;47.202;15.258;2024-03-08T14:24:25;96139.13;;;4.35;100.00
29379;BME280;16362;47.202;15.258;2024-03-08T14:30:43;96138.44;;;4.33;100.00
29379;BME280;16362;47.202;15.258;2024-03-08T14:36:53;96128.56;;;4.45;100.00
29379;BME280;16362;47.202;15.258;2024-03-08T14:47:29;96116.75;;;4.30;100.00
29379;BME280;16362;47.202;15.258;2024-03-08T14:53:49;96116.88;;;4.18;100.00
29379;BME280;16362;47.202;15.258;2024-03-08T15:00:08;96107.41;;;4.26;100.00
29379;BME280;16362;47.202;15.258;2024-03-08T15:06:24;96102.97;;;4.26;100.00
29379;BME280;16362;47.202;15.258;2024-03-08T15:12:32;96093.81;;;4.40;100.00
29379;BME280;16362;47.202;15.258;2024-03-08T15:18:50;96092.09;;;4.49;100.00
29379;BME280;16362;47.202;15.258;2024-03-08T15:25:10;96100.22;;;4.28;100.00
29379;BME280;16362;47.202;15.258;2024-03-08T15:31:28;96094.06;;;4.37;100.00
29379;BME280;16362;47.202;15.258;2024-03-08T15:37:47;96091.56;;;4.35;100.00
29379;BME280;16362;47.202;15.258;2024-03-08T15:48:10;96084.75;;;4.23;100.00
29379;BME280;16362;47.202;15.258;2024-03-08T15:54:29;96085.16;;;4.38;100.00
29379;BME280;16362;47.202;15.258;2024-03-08T16:00:47;96092.16;;;4.19;100.00
29379;BME280;16362;47.202;15.258;2024-03-08T16:06:56;96089.06;;;4.34;100.00
29379;BME280;16362;47.202;15.258;2024-03-08T16:13:18;96089.09;;;4.14;100.00
29379;BME280;16362;47.202;15.258;2024-03-08T16:19:38;96082.13;;;4.13;100.00
29379;BME280;16362;47.202;15.258;2024-03-08T16:25:59;96087.13;;;3.97;100.00
29379;BME280;16362;47.202;15.258;2024-03-08T16:32:07;96094.91;;;3.88;100.00
29379;BME280;16362;47.202;15.258;2024-03-08T16:38:26;96095.13;;;3.66;100.00
29379;BME280;16362;47.202;15.258;2024-03-08T16:49:02;96098.59;;;3.57;100.00
29379;BME280;16362;47.202;15.258;2024-03-08T16:55:23;96094.81;;;3.49;100.00
29379;BME280;16362;47.202;15.258;2024-03-08T17:01:32;96096.59;;;3.39;100.00
29379;BME280;16362;47.202;15.258;2024-03-08T17:07:50;96095.28;;;3.24;100.00
29379;BME280;16362;47.202;15.258;2024-03-08T17:14:10;96111.38;;;3.20;100.00
29379;BME280;16362;47.202;15.258;2024-03-08T17:20:30;96102.19;;;3.15;100.00
29379;BME280;16362;47.202;15.258;2024-03-08T17:26:39;96110.94;;;3.15;100.00
29379;BME280;16362;47.202;15.258;2024-03-08T17:32:59;96109.13;;;3.16;100.00
29379;BME280;16362;47.202;15.258;2024-03-08T17:39:18;96106.09;;;3.20;100.00
29379;BME280;16362;47.202;15.258;2024-03-08T17:49:41;96094.41;;;3.13;100.00
29379;BME280;16362;47.202;15.258;2024-03-08T17:55:50;96096.63;;;3.18;100.00
29379;BME280;16362;47.202;15.258;2024-03-08T18:01:59;96093.91;;;3.19;100.00
29379;BME280;16362;47.202;15.258;2024-03-08T18:08:18;96101.09;;;3.17;100.00
29379;BME280;16362;47.202;15.258;2024-03-08T18:14:36;96102.34;;;3.23;100.00
29379;BME280;16362;47.202;15.258;2024-03-08T18:20:55;96098.31;;;3.19;100.00
29379;BME280;16362;47.202;15.258;2024-03-08T18:27:04;96100.13;;;3.18;100.00
29379;BME280;16362;47.202;15.258;2024-03-08T18:33:52;96092.50;;;3.15;100.00
29379;BME280;16362;47.202;15.258;2024-03-08T18:40:11;96090.94;;;3.13;100.00
29379;BME280;16362;47.202;15.258;2024-03-08T18:50:55;96082.19;;;3.12;100.00
29379;BME280;16362;47.202;15.258;2024-03-08T18:57:07;96084.97;;;3.11;100.00
29379;BME280;16362;47.202;15.258;2024-03-08T19:03:51;96073.97;;;3.06;100.00
29379;BME280;16362;47.202;15.258;2024-03-08T19:10:14;96070.06;;;3.00;100.00
29379;BME280;16362;47.202;15.258;2024-03-08T19:16:26;96064.78;;;3.00;100.00
29379;BME280;16362;47.202;15.258;2024-03-08T19:22:46;96075.19;;;3.01;100.00
29379;BME280;16362;47.202;15.258;2024-03-08T19:29:05;96062.59;;;3.05;100.00
29379;BME280;16362;47.202;15.258;2024-03-08T19:35:24;96061.66;;;3.06;100.00
29379;BME280;16362;47.202;15.258;2024-03-08T19:41:33;96058.00;;;3.07;100.00
29379;BME280;16362;47.202;15.258;2024-03-08T19:52:22;96063.81;;;2.91;100.00
29379;BME280;16362;47.202;15.258;2024-03-08T19:58:41;96057.53;;;2.92;100.00
29379;BME280;16362;47.202;15.258;2024-03-08T20:05:00;96063.25;;;2.97;100.00
29379;BME280;16362;47.202;15.258;2024-03-08T20:11:10;96061.56;;;2.96;100.00
29379;BME280;16362;47.202;15.258;2024-03-08T20:17:29;96055.47;;;2.96;100.00
29379;BME280;16362;47.202;15.258;2024-03-08T20:23:47;96052.16;;;2.94;100.00
29379;BME280;16362;47.202;15.258;2024-03-08T20:29:57;96058.13;;;2.96;100.00
29379;BME280;16362;47.202;15.258;2024-03-08T20:36:16;96044.25;;;2.94;100.00
29379;BME280;16362;47.202;15.258;2024-03-08T20:42:35;96050.94;;;2.98;100.00
29379;BME280;16362;47.202;15.258;2024-03-08T20:53:12;96055.22;;;2.99;100.00
29379;BME280;16362;47.202;15.258;2024-03-08T20:59:22;96058.25;;;2.94;100.00
29379;BME280;16362;47.202;15.258;2024-03-08T21:05:42;96045.50;;;2.99;100.00
29379;BME280;16362;47.202;15.258;2024-03-08T21:12:02;96047.44;;;2.97;100.00
29379;BME280;16362;47.202;15.258;2024-03-08T21:18:24;96033.13;;;2.90;100.00
29379;BME280;16362;47.202;15.258;2024-03-08T21:24:34;96021.03;;;2.88;100.00
29379;BME280;16362;47.202;15.258;2024-03-08T21:30:53;96015.25;;;2.94;100.00
29379;BME280;16362;47.202;15.258;2024-03-08T21:37:13;96002.75;;;2.96;100.00
29379;BME280;16362;47.202;15.258;2024-03-08T21:43:32;95994.16;;;2.94;100.00
29379;BME280;16362;47.202;15.258;2024-03-08T21:53:48;95999.44;;;2.94;100.00
29379;BME280;16362;47.202;15.258;2024-03-08T22:00:07;95983.88;;;2.91;100.00
29379;BME280;16362;47.202;15.258;2024-03-08T22:06:40;95993.44;;;2.92;100.00
29379;BME280;16362;47.202;15.258;2024-03-08T22:13:00;95985.53;;;2.92;100.00
29379;BME280;16362;47.202;15.258;2024-03-08T22:19:08;95989.13;;;2.91;100.00
29379;BME280;16362;47.202;15.258;2024-03-08T22:25:28;95974.03;;;2.93;100.00
29379;BME280;16362;47.202;15.258;2024-03-08T22:31:49;95978.59;;;2.91;100.00
29379;BME280;16362;47.202;15.258;2024-03-08T22:37:59;95967.22;;;2.90;100.00
29379;BME280;16362;47.202;15.258;2024-03-08T22:44:18;95965.72;;;2.97;100.00
29379;BME280;16362;47.202;15.258;2024-03-08T22:54:55;95967.81;;;2.94;100.00
29379;BME280;16362;47.202;15.258;2024-03-08T23:01:13;95954.63;;;2.94;100.00
29379;BME280;16362;47.202;15.258;2024-03-08T23:07:25;95949.59;;;2.91;100.00
29379;BME280;16362;47.202;15.258;2024-03-08T23:13:45;95942.78;;;2.88;100.00
29379;BME280;16362;47.202;15.258;2024-03-08T23:20:05;95947.25;;;2.88;100.00
29379;BME280;16362;47.202;15.258;2024-03-08T23:26:26;95944.59;;;2.88;100.00
29379;BME280;16362;47.202;15.258;2024-03-08T23:32:35;95946.00;;;2.92;100.00
29379;BME280;16362;47.202;15.258;2024-03-08T23:38:54;95941.25;;;2.85;100.00
29379;BME280;16362;47.202;15.258;2024-03-08T23:45:13;95934.88;;;2.78;100.00
29379;BME280;16362;47.202;15.258;2024-03-08T23:55:42;95935.31;;;2.83;100.00
